Time;durP1;ratioP1;P1;durP2;ratioP2;P2;SDS_P1;SDS_P2;PMS_P1;PMS_P2;Temp;Humidity;BMP_temperature;BMP_pressure;BME280_temperature;BME280_humidity;BME280_pressure;Samples;Min_cycle;Max_cycle;Signal;HPM_P1;HPM_P2
2021/08/31 00:01:42;;;;;;;2.22;1.02;;;19.10;99.90;;;;;;6131501;23;20018;-78
2021/08/31 00:04:08;;;;;;;4.28;1.65;;;19.10;99.90;;;;;;6131798;23;20009;-77
2021/08/31 00:06:34;;;;;;;2.85;1.38;;;19.10;99.90;;;;;;6131014;23;20001;-78
2021/08/31 00:08:59;;;;;;;4.30;1.38;;;19.10;99.90;;;;;;6129320;23;20459;-78
2021/08/31 00:11:25;;;;;;;5.15;1.30;;;19.10;99.90;;;;;;6129595;23;20008;-78
2021/08/31 00:13:51;;;;;;;1.50;1.40;;;19.00;99.90;;;;;;6129436;23;20033;-78
2021/08/31 00:16:17;;;;;;;3.05;1.35;;;19.00;99.90;;;;;;6135531;23;20025;-78
2021/08/31 00:18:43;;;;;;;1.73;1.55;;;19.00;99.90;;;;;;6134290;23;20014;-78
2021/08/31 00:21:10;;;;;;;2.95;1.40;;;19.00;99.90;;;;;;6133840;23;20073;-77
2021/08/31 00:23:36;;;;;;;3.35;2.15;;;19.00;99.90;;;;;;6134373;23;20001;-77
2021/08/31 00:26:02;;;;;;;4.25;1.40;;;18.90;99.90;;;;;;6132561;23;19994;-78
2021/08/31 00:28:27;;;;;;;9.60;1.60;;;18.90;99.90;;;;;;6137543;23;19986;-78
2021/08/31 00:30:53;;;;;;;6.35;1.63;;;18.90;99.90;;;;;;6137899;23;20024;-78
2021/08/31 00:33:19;;;;;;;4.40;1.67;;;18.80;99.90;;;;;;6138121;23;20429;-78
2021/08/31 00:35:44;;;;;;;2.47;1.73;;;18.70;99.90;;;;;;6136065;23;19998;-77
2021/08/31 00:38:10;;;;;;;13.00;1.50;;;18.60;99.90;;;;;;6137249;23;20009;-78
2021/08/31 00:40:36;;;;;;;3.83;2.00;;;18.60;99.90;;;;;;6137613;23;19994;-80
2021/08/31 00:43:02;;;;;;;1.70;1.35;;;18.60;99.90;;;;;;6137005;23;20010;-78
2021/08/31 00:45:28;;;;;;;3.13;1.80;;;18.60;99.90;;;;;;6133246;23;20013;-78
2021/08/31 00:47:54;;;;;;;2.15;1.33;;;18.60;99.90;;;;;;6136931;23;20050;-78
2021/08/31 00:50:21;;;;;;;3.88;1.70;;;18.60;99.90;;;;;;6137540;23;20005;-78
2021/08/31 00:52:48;;;;;;;2.83;1.70;;;18.60;99.90;;;;;;6136544;23;20006;-77
2021/08/31 00:55:13;;;;;;;5.95;1.75;;;18.60;99.90;;;;;;6138175;23;20017;-77
2021/08/31 00:57:40;;;;;;;2.20;1.45;;;18.60;99.90;;;;;;6136017;23;20002;-78
2021/08/31 01:00:11;;;;;;;2.15;1.30;;;18.60;99.90;;;;;;6138025;23;20014;-79
2021/08/31 01:02:37;;;;;;;3.47;1.40;;;18.60;99.90;;;;;;6165799;23;20013;-78
2021/08/31 01:05:04;;;;;;;2.33;1.42;;;18.60;99.90;;;;;;6138915;23;20010;-79
2021/08/31 01:07:30;;;;;;;5.45;1.80;;;18.60;99.90;;;;;;6162729;23;20008;-79
2021/08/31 01:09:56;;;;;;;3.42;1.50;;;18.60;99.90;;;;;;6163052;23;20002;-78
2021/08/31 01:12:22;;;;;;;7.63;1.80;;;18.60;99.90;;;;;;6163120;23;20004;-79
2021/08/31 01:14:48;;;;;;;7.20;1.58;;;18.60;99.90;;;;;;6161182;23;20012;-78
2021/08/31 01:17:14;;;;;;;2.10;1.17;;;18.50;99.90;;;;;;6160525;23;20002;-78
2021/08/31 01:19:40;;;;;;;6.40;1.40;;;18.50;99.90;;;;;;6162902;23;20436;-78
2021/08/31 01:22:11;;;;;;;5.95;1.42;;;18.50;99.90;;;;;;6158574;23;20004;-78
2021/08/31 01:24:40;;;;;;;4.60;1.65;;;18.40;99.90;;;;;;6156793;23;20006;-78
2021/08/31 01:27:06;;;;;;;4.07;1.85;;;18.30;99.90;;;;;;6158132;23;20029;-78
2021/08/31 01:29:32;;;;;;;4.97;1.52;;;18.40;99.90;;;;;;6158678;23;20008;-78
2021/08/31 01:31:58;;;;;;;4.18;1.60;;;18.30;99.90;;;;;;6158118;23;20009;-78
2021/08/31 01:34:24;;;;;;;2.35;1.63;;;18.30;99.90;;;;;;6158055;23;20056;-77
2021/08/31 01:36:50;;;;;;;3.47;1.42;;;18.30;99.90;;;;;;6158017;23;20001;-78
2021/08/31 01:39:16;;;;;;;3.92;2.13;;;18.20;99.90;;;;;;6158229;23;20016;-78
2021/08/31 01:41:41;;;;;;;5.97;1.65;;;18.20;99.90;;;;;;6157812;23;19998;-79
2021/08/31 01:44:07;;;;;;;4.28;1.70;;;18.20;99.90;;;;;;6157572;23;20001;-78
2021/08/31 01:46:33;;;;;;;4.20;1.55;;;18.20;99.90;;;;;;6131641;23;19997;-78
2021/08/31 01:48:58;;;;;;;3.47;1.40;;;18.20;99.90;;;;;;6157643;23;20005;-78
2021/08/31 01:51:24;;;;;;;5.57;1.63;;;18.10;99.90;;;;;;6158059;23;19997;-78
2021/08/31 01:53:50;;;;;;;6.15;1.88;;;18.10;99.90;;;;;;6131476;23;20376;-80
2021/08/31 01:56:16;;;;;;;1.38;1.10;;;18.10;99.90;;;;;;6158088;23;19997;-78
2021/08/31 01:58:42;;;;;;;2.42;1.65;;;18.10;99.90;;;;;;6157880;23;20404;-78
2021/08/31 02:01:07;;;;;;;3.42;1.65;;;18.10;99.90;;;;;;6157862;23;20160;-78
2021/08/31 02:03:33;;;;;;;5.93;1.70;;;18.10;99.90;;;;;;6157527;23;20012;-79
2021/08/31 02:05:59;;;;;;;2.55;1.60;;;18.10;99.90;;;;;;6157797;23;19993;-79
2021/08/31 02:08:25;;;;;;;7.93;1.50;;;18.00;99.90;;;;;;6158299;23;19997;-78
2021/08/31 02:10:50;;;;;;;2.88;1.40;;;18.00;99.90;;;;;;6157952;23;20000;-78
2021/08/31 02:13:16;;;;;;;4.35;1.73;;;17.90;99.90;;;;;;6157473;23;20001;-78
2021/08/31 02:15:42;;;;;;;16.02;2.20;;;17.90;99.90;;;;;;6157739;23;20025;-78
2021/08/31 02:18:08;;;;;;;1.73;1.33;;;17.80;99.90;;;;;;6157709;23;20432;-78
2021/08/31 02:20:34;;;;;;;4.45;1.92;;;17.80;99.90;;;;;;6158194;23;20103;-78
2021/08/31 02:23:00;;;;;;;7.93;1.60;;;17.70;99.90;;;;;;6158003;23;20448;-79
2021/08/31 02:25:25;;;;;;;2.30;1.58;;;17.70;99.90;;;;;;6158070;23;20005;-78
2021/08/31 02:27:51;;;;;;;6.35;1.45;;;17.70;99.90;;;;;;6158419;23;19997;-79
2021/08/31 02:30:17;;;;;;;2.10;1.52;;;17.70;99.90;;;;;;6158083;23;20001;-79
2021/08/31 02:32:45;;;;;;;2.22;1.63;;;17.70;99.90;;;;;;6157565;23;20009;-78
2021/08/31 02:35:12;;;;;;;2.45;1.58;;;17.70;99.90;;;;;;6157647;23;20001;-79
2021/08/31 02:37:38;;;;;;;2.42;1.40;;;17.60;99.90;;;;;;6156942;23;20076;-78
2021/08/31 02:40:05;;;;;;;4.05;1.50;;;17.60;99.90;;;;;;6157414;23;20060;-79
2021/08/31 02:42:31;;;;;;;2.72;1.73;;;17.60;99.90;;;;;;6157305;23;20002;-78
2021/08/31 02:44:57;;;;;;;1.90;1.45;;;17.60;99.90;;;;;;6157910;23;20309;-78
2021/08/31 02:47:22;;;;;;;3.38;1.25;;;17.50;99.90;;;;;;6131091;23;20084;-78
2021/08/31 02:49:48;;;;;;;4.20;1.40;;;17.50;99.90;;;;;;6157393;23;20006;-78
2021/08/31 02:52:14;;;;;;;4.40;1.30;;;17.40;99.90;;;;;;6157238;23;20057;-77
2021/08/31 02:54:40;;;;;;;1.60;1.23;;;17.50;99.90;;;;;;6157109;23;20026;-78
2021/08/31 02:57:06;;;;;;;5.70;1.30;;;17.40;99.90;;;;;;6157413;23;20002;-78
2021/08/31 02:59:31;;;;;;;4.03;1.50;;;17.30;99.90;;;;;;6157098;23;20507;-78
2021/08/31 03:04:23;;;;;;;3.22;1.60;;;17.30;99.90;;;;;;6157820;23;20059;-78
2021/08/31 03:06:48;;;;;;;4.40;1.60;;;17.30;99.90;;;;;;6157112;23;20005;-78
2021/08/31 03:09:14;;;;;;;2.08;1.63;;;17.30;99.90;;;;;;6156821;23;20001;-78
2021/08/31 03:11:40;;;;;;;2.13;1.55;;;17.30;99.90;;;;;;6156946;23;20001;-78
2021/08/31 03:14:05;;;;;;;2.95;1.73;;;17.30;99.90;;;;;;6157109;23;20069;-80
2021/08/31 03:16:31;;;;;;;1.77;1.30;;;17.40;99.90;;;;;;6157025;23;19997;-78
2021/08/31 03:18:57;;;;;;;2.30;1.45;;;17.40;99.90;;;;;;6155445;23;20076;-78
2021/08/31 03:21:22;;;;;;;1.60;1.50;;;17.30;99.90;;;;;;6156936;23;20001;-78
2021/08/31 03:23:48;;;;;;;2.25;1.52;;;17.40;99.90;;;;;;6156375;23;20431;-78
2021/08/31 03:26:14;;;;;;;4.82;1.73;;;17.40;99.90;;;;;;6156890;23;20373;-79
2021/08/31 03:28:39;;;;;;;2.75;2.08;;;17.40;99.90;;;;;;6156727;23;20001;-79
2021/08/31 03:31:05;;;;;;;3.33;1.70;;;17.40;99.90;;;;;;6156691;23;20341;-78
2021/08/31 03:33:31;;;;;;;3.92;1.67;;;17.40;99.90;;;;;;6156603;23;20001;-78
2021/08/31 03:35:56;;;;;;;6.45;1.65;;;17.40;99.90;;;;;;6156556;23;19998;-78
2021/08/31 03:38:22;;;;;;;2.65;1.70;;;17.50;99.90;;;;;;6156570;23;20500;-79
2021/08/31 03:40:48;;;;;;;1.98;1.40;;;17.50;99.90;;;;;;6156627;23;20009;-80
2021/08/31 03:43:13;;;;;;;6.05;2.47;;;17.50;99.90;;;;;;6156457;23;20103;-78
2021/08/31 03:45:39;;;;;;;4.55;1.70;;;17.50;99.90;;;;;;6156401;23;19998;-78
2021/08/31 03:48:05;;;;;;;6.63;1.70;;;17.50;99.90;;;;;;6156495;23;20052;-79
2021/08/31 03:50:31;;;;;;;1.50;1.33;;;17.50;99.90;;;;;;6156565;23;20001;-79
2021/08/31 03:52:56;;;;;;;5.05;2.15;;;17.50;99.90;;;;;;6156427;23;20072;-78
2021/08/31 03:55:22;;;;;;;2.33;1.50;;;17.50;99.90;;;;;;6156494;23;20076;-78
2021/08/31 03:57:48;;;;;;;1.30;1.20;;;17.50;99.90;;;;;;6156998;23;20081;-78
2021/08/31 04:00:14;;;;;;;3.13;1.83;;;17.50;99.90;;;;;;6156073;23;20024;-78
2021/08/31 04:02:39;;;;;;;2.97;1.27;;;17.50;99.90;;;;;;6156385;23;20001;-78
2021/08/31 04:05:06;;;;;;;2.63;1.58;;;17.50;99.90;;;;;;6156254;23;20081;-78
2021/08/31 04:07:31;;;;;;;2.53;1.50;;;17.50;99.90;;;;;;6156138;23;20002;-79
2021/08/31 04:09:57;;;;;;;2.47;1.55;;;17.50;99.90;;;;;;6156433;23;19998;-78
2021/08/31 04:12:23;;;;;;;6.28;2.30;;;17.50;99.90;;;;;;6156403;23;20056;-79
2021/08/31 04:14:49;;;;;;;5.07;1.75;;;17.50;99.90;;;;;;6130120;23;20332;-79
2021/08/31 04:17:14;;;;;;;7.30;1.67;;;17.50;99.90;;;;;;6156403;23;20002;-79
2021/08/31 04:19:41;;;;;;;1.80;1.60;;;17.50;99.90;;;;;;6156120;23;20092;-79
2021/08/31 04:22:07;;;;;;;3.47;1.50;;;17.50;99.90;;;;;;6156140;23;19997;-79
2021/08/31 04:24:33;;;;;;;2.97;1.60;;;17.40;99.90;;;;;;6156329;23;20344;-78
2021/08/31 04:26:58;;;;;;;11.13;1.38;;;17.40;99.90;;;;;;6155933;23;19997;-78
2021/08/31 04:29:24;;;;;;;4.05;2.03;;;17.30;99.90;;;;;;6156193;23;20377;-78
2021/08/31 04:31:50;;;;;;;4.35;1.60;;;17.30;99.90;;;;;;6156132;23;20079;-78
2021/08/31 04:34:15;;;;;;;5.18;2.10;;;17.30;99.90;;;;;;6156008;23;20009;-79
2021/08/31 04:36:42;;;;;;;2.17;1.52;;;17.20;99.90;;;;;;6155802;23;20001;-79
2021/08/31 04:39:08;;;;;;;2.53;1.80;;;17.20;99.90;;;;;;6156116;23;20213;-78
2021/08/31 04:41:33;;;;;;;3.08;1.83;;;17.20;99.90;;;;;;6156015;23;20076;-78
2021/08/31 04:43:59;;;;;;;5.63;1.90;;;17.20;99.90;;;;;;6156368;23;20275;-78
2021/08/31 04:46:24;;;;;;;3.55;1.60;;;17.30;99.90;;;;;;6155878;23;20008;-79
2021/08/31 04:48:50;;;;;;;1.77;1.42;;;17.30;99.90;;;;;;6156701;23;20420;-79
2021/08/31 04:51:16;;;;;;;4.38;1.52;;;17.30;99.90;;;;;;6156112;23;20001;-79
2021/08/31 04:53:41;;;;;;;1.90;1.40;;;17.30;99.90;;;;;;6156264;23;20483;-79
2021/08/31 04:56:07;;;;;;;2.78;1.55;;;17.40;99.90;;;;;;6155867;23;20413;-78
2021/08/31 04:58:33;;;;;;;6.97;2.00;;;17.70;99.90;;;;;;6156029;23;20428;-79
2021/08/31 05:00:58;;;;;;;2.08;1.60;;;18.20;99.90;;;;;;6155671;23;20037;-79
2021/08/31 05:03:24;;;;;;;8.95;2.08;;;19.30;99.90;;;;;;6156051;23;20443;-79
2021/08/31 05:05:50;;;;;;;7.75;1.98;;;20.60;99.90;;;;;;6156055;23;19997;-80
2021/08/31 05:08:16;;;;;;;7.70;1.85;;;21.90;99.90;;;;;;6155746;23;20012;-79
2021/08/31 05:10:42;;;;;;;12.18;1.83;;;23.20;99.90;;;;;;6156256;23;20025;-79
2021/08/31 05:13:07;;;;;;;5.45;1.83;;;24.40;99.90;;;;;;6155851;23;19997;-79
2021/08/31 05:15:33;;;;;;;5.13;1.65;;;25.30;99.90;;;;;;6155957;23;20005;-79
2021/08/31 05:17:59;;;;;;;7.80;1.70;;;26.30;99.90;;;;;;6155718;23;20002;-79
2021/08/31 05:20:27;;;;;;;5.95;1.33;;;26.80;99.90;;;;;;6155728;23;20002;-80
2021/08/31 05:22:54;;;;;;;6.30;1.77;;;27.20;99.90;;;;;;6155989;23;20301;-79
2021/08/31 05:25:20;;;;;;;3.53;1.50;;;28.00;99.90;;;;;;6155785;23;20380;-79
2021/08/31 05:27:46;;;;;;;8.85;1.60;;;28.70;98.90;;;;;;6156052;23;20480;-80
2021/08/31 05:30:12;;;;;;;2.95;1.35;;;29.00;97.80;;;;;;6154712;23;19997;-80
2021/08/31 05:32:38;;;;;;;5.90;1.40;;;29.30;96.70;;;;;;6155476;23;20013;-79
2021/08/31 05:35:04;;;;;;;11.48;3.25;;;28.70;96.30;;;;;;6130701;23;20008;-78
2021/08/31 05:37:30;;;;;;;7.38;1.55;;;27.50;97.30;;;;;;6131199;23;20009;-78
2021/08/31 05:39:56;;;;;;;6.32;1.73;;;26.60;98.80;;;;;;6131239;23;20013;-81
2021/08/31 05:42:22;;;;;;;7.00;1.48;;;26.40;99.40;;;;;;6131130;23;20057;-80
2021/08/31 05:44:49;;;;;;;3.42;1.58;;;27.10;98.70;;;;;;6156321;23;20098;-79
2021/08/31 05:47:14;;;;;;;3.70;1.05;;;28.00;97.40;;;;;;6155828;23;20002;-79
2021/08/31 05:49:41;;;;;;;1.10;1.00;;;28.20;96.80;;;;;;6155555;23;20005;-78
2021/08/31 05:52:07;;;;;;;10.02;1.25;;;28.80;95.50;;;;;;6155933;23;20013;-78
2021/08/31 05:54:33;;;;;;;3.75;1.02;;;29.00;94.80;;;;;;6154450;23;20670;-79
2021/08/31 05:57:01;;;;;;;2.83;1.67;;;29.70;94.50;;;;;;6155608;23;20002;-79
2021/08/31 05:59:27;;;;;;;4.85;1.25;;;30.40;94.10;;;;;;6155396;23;20014;-78
2021/08/31 06:01:52;;;;;;;2.95;1.23;;;30.20;93.00;;;;;;6155578;23;20318;-76
2021/08/31 06:04:22;;;;;;;1.80;0.93;;;30.50;92.60;;;;;;6153771;23;20014;-76
2021/08/31 06:06:48;;;;;;;8.43;0.90;;;30.50;92.40;;;;;;6155748;23;20320;-77
2021/08/31 06:09:14;;;;;;;7.53;1.83;;;30.10;92.60;;;;;;6155873;23;20001;-75
2021/08/31 06:11:40;;;;;;;9.45;1.20;;;28.70;94.10;;;;;;6156106;23;20001;-78
2021/08/31 06:14:07;;;;;;;3.80;1.92;;;27.40;95.70;;;;;;6157303;23;20496;-77
2021/08/31 06:16:34;;;;;;;4.75;1.15;;;26.20;96.60;;;;;;6157711;23;20005;-77
2021/08/31 06:19:01;;;;;;;1.15;0.95;;;25.60;98.00;;;;;;6157249;23;20344;-77
2021/08/31 06:21:27;;;;;;;4.20;1.20;;;24.90;98.80;;;;;;6157156;23;20428;-77
2021/08/31 06:23:53;;;;;;;6.30;1.17;;;24.50;99.70;;;;;;6157507;23;20006;-78
2021/08/31 06:26:19;;;;;;;6.78;1.40;;;24.50;99.90;;;;;;6157547;23;20006;-78
2021/08/31 06:28:44;;;;;;;3.03;1.52;;;24.30;99.90;;;;;;6157101;23;20002;-78
2021/08/31 06:31:10;;;;;;;7.93;1.52;;;24.30;99.90;;;;;;6156610;23;20009;-77
2021/08/31 06:33:36;;;;;;;6.40;1.20;;;24.60;99.90;;;;;;6157251;23;20012;-77
2021/08/31 06:36:01;;;;;;;4.20;1.10;;;25.60;99.90;;;;;;6157207;23;20005;-76
2021/08/31 06:38:27;;;;;;;3.70;1.08;;;26.40;98.60;;;;;;6157158;23;20013;-76
2021/08/31 06:40:53;;;;;;;1.58;1.00;;;27.10;97.90;;;;;;6157040;23;20005;-76
2021/08/31 06:43:19;;;;;;;7.22;1.15;;;27.60;97.10;;;;;;6157207;23;20432;-76
2021/08/31 06:45:45;;;;;;;2.28;1.13;;;28.00;96.40;;;;;;6157074;23;20002;-76
2021/08/31 06:48:10;;;;;;;9.40;1.30;;;28.40;95.90;;;;;;6156969;23;20076;-77
2021/08/31 06:50:36;;;;;;;2.47;1.30;;;29.30;95.20;;;;;;6156968;23;20036;-78
2021/08/31 06:53:02;;;;;;;1.98;1.00;;;30.10;94.30;;;;;;6156493;23;20072;-77
2021/08/31 06:55:28;;;;;;;3.33;1.10;;;30.50;93.10;;;;;;6157244;23;20010;-77
2021/08/31 06:57:54;;;;;;;1.33;0.63;;;31.10;92.10;;;;;;6156804;23;19998;-77
2021/08/31 07:00:19;;;;;;;6.80;1.45;;;31.30;91.60;;;;;;6156555;23;20085;-78
2021/08/31 07:02:45;;;;;;;3.10;0.80;;;31.40;91.30;;;;;;6156976;23;20016;-80
2021/08/31 07:05:11;;;;;;;2.38;1.20;;;31.80;90.70;;;;;;6156717;23;20005;-80
2021/08/31 07:07:36;;;;;;;1.75;0.90;;;32.50;90.20;;;;;;6156814;23;20306;-80
2021/08/31 07:10:04;;;;;;;1.25;0.70;;;32.90;89.30;;;;;;6156893;23;20413;-80
2021/08/31 07:12:30;;;;;;;2.25;0.80;;;33.50;88.00;;;;;;6130677;23;20337;-80
2021/08/31 07:14:57;;;;;;;1.13;0.90;;;33.80;86.20;;;;;;6156642;23;20425;-78
2021/08/31 07:17:23;;;;;;;0.77;0.60;;;34.00;85.50;;;;;;6156550;23;19997;-80
2021/08/31 07:19:49;;;;;;;1.40;0.75;;;34.30;84.80;;;;;;6156722;23;20020;-80
2021/08/31 07:22:17;;;;;;;2.38;0.80;;;34.50;84.20;;;;;;6156524;23;19994;-80
2021/08/31 07:24:43;;;;;;;2.50;0.85;;;34.90;83.20;;;;;;6130540;23;20432;-81
2021/08/31 07:27:09;;;;;;;4.35;0.60;;;35.10;83.40;;;;;;6156579;23;20001;-80
2021/08/31 07:29:34;;;;;;;9.98;1.50;;;35.50;82.50;;;;;;6130389;23;20623;-82
2021/08/31 07:32:00;;;;;;;3.83;1.20;;;35.70;82.30;;;;;;6156791;23;20061;-81
2021/08/31 07:34:28;;;;;;;7.53;0.98;;;35.80;81.30;;;;;;6130558;23;20336;-80
2021/08/31 07:36:54;;;;;;;1.60;0.75;;;35.60;82.20;;;;;;6156827;23;20325;-80
2021/08/31 07:39:20;;;;;;;1.80;0.70;;;35.80;83.20;;;;;;6156208;23;20014;-80
2021/08/31 07:41:46;;;;;;;3.85;0.85;;;36.20;83.10;;;;;;6156780;23;20333;-81
2021/08/31 07:44:11;;;;;;;5.53;1.30;;;36.60;82.90;;;;;;6156461;23;20494;-80
2021/08/31 07:46:38;;;;;;;7.07;0.93;;;36.80;82.60;;;;;;6156871;23;20002;-80
2021/08/31 07:49:04;;;;;;;6.30;0.90;;;36.90;81.10;;;;;;6156205;23;20059;-81
2021/08/31 07:51:30;;;;;;;6.90;0.98;;;37.00;80.60;;;;;;6156987;23;20002;-80
2021/08/31 07:53:55;;;;;;;2.97;1.30;;;37.60;80.20;;;;;;6156595;23;20002;-81
2021/08/31 07:56:21;;;;;;;5.35;1.35;;;37.80;79.60;;;;;;6156432;23;20009;-80
2021/08/31 07:58:46;;;;;;;1.45;0.57;;;38.20;79.40;;;;;;6156183;23;20036;-80
2021/08/31 08:01:12;;;;;;;3.13;0.68;;;38.70;79.30;;;;;;6156103;23;20344;-80
2021/08/31 08:03:38;;;;;;;2.45;0.57;;;39.20;77.80;;;;;;6156502;23;20013;-80
2021/08/31 08:06:03;;;;;;;2.55;0.93;;;39.60;76.40;;;;;;6156367;23;19997;-80
2021/08/31 08:08:29;;;;;;;4.93;1.55;;;39.40;76.10;;;;;;6156248;23;20025;-79
2021/08/31 08:10:55;;;;;;;6.13;1.58;;;39.10;76.10;;;;;;6130071;23;20001;-81
2021/08/31 08:13:20;;;;;;;5.72;1.20;;;38.80;76.30;;;;;;6156273;23;20012;-80
2021/08/31 08:15:46;;;;;;;5.57;0.75;;;39.10;76.50;;;;;;6156163;23;20001;-82
2021/08/31 08:18:12;;;;;;;11.90;1.40;;;39.20;76.50;;;;;;6156160;23;20028;-83
2021/08/31 08:20:41;;;;;;;10.57;1.00;;;39.30;75.50;;;;;;6156231;23;20002;-82
2021/08/31 08:23:07;;;;;;;4.65;0.90;;;39.30;75.50;;;;;;6156368;23;19999;-83
2021/08/31 08:25:33;;;;;;;7.07;0.85;;;39.50;75.20;;;;;;6156345;23;20005;-83
2021/08/31 08:27:59;;;;;;;6.93;0.95;;;39.60;75.30;;;;;;6156286;23;19998;-83
2021/08/31 08:30:24;;;;;;;4.72;1.17;;;39.30;75.20;;;;;;6156141;23;20002;-83
2021/08/31 08:32:50;;;;;;;6.22;1.58;;;39.30;75.30;;;;;;6154869;23;20088;-86
2021/08/31 08:35:16;;;;;;;7.75;1.55;;;39.30;74.80;;;;;;6156059;23;20325;-87
2021/08/31 08:37:43;;;;;;;5.55;1.23;;;38.80;74.90;;;;;;6156889;23;20001;-83
2021/08/31 08:40:10;;;;;;;4.20;1.23;;;38.70;75.20;;;;;;6157103;23;20048;-86
2021/08/31 08:42:37;;;;;;;9.85;1.40;;;38.70;74.60;;;;;;6156013;23;20005;-88
2021/08/31 08:45:04;;;;;;;12.60;1.50;;;38.50;75.10;;;;;;6156866;23;20005;-88
2021/08/31 08:47:31;;;;;;;4.57;1.35;;;38.50;75.90;;;;;;6157107;23;20001;-89
2021/08/31 08:49:57;;;;;;;7.63;1.55;;;38.40;76.30;;;;;;6156839;23;20020;-87
2021/08/31 08:52:22;;;;;;;4.10;1.25;;;38.30;77.20;;;;;;6157244;23;20029;-88
2021/08/31 08:54:48;;;;;;;5.53;1.13;;;38.30;77.60;;;;;;6156862;23;20021;-90
2021/08/31 08:57:17;;;;;;;7.30;1.08;;;38.00;77.10;;;;;;6157376;23;20472;-86
2021/08/31 08:59:43;;;;;;;6.63;1.20;;;37.60;77.60;;;;;;6157904;23;20068;-90
2021/08/31 09:02:09;;;;;;;1.95;0.77;;;37.10;78.20;;;;;;6157257;23;20024;-92
2021/08/31 09:04:41;;;;;;;7.22;1.00;;;36.80;79.20;;;;;;6157687;23;20428;-89
2021/08/31 09:07:25;;;;;;;3.47;1.15;;;36.30;80.00;;;;;;6158141;23;20002;-91
2021/08/31 09:10:10;;;;;;;4.68;1.23;;;35.60;81.80;;;;;;6157774;23;20432;-87
2021/08/31 09:12:37;;;;;;;12.55;1.48;;;34.80;83.60;;;;;;6157324;23;19998;-90
2021/08/31 09:15:32;;;;;;;3.58;0.85;;;33.70;85.70;;;;;;6157316;23;20005;-89
2021/08/31 09:18:04;;;;;;;5.15;1.15;;;32.50;88.70;;;;;;6157059;23;20029;-90
2021/08/31 09:20:34;;;;;;;5.70;1.00;;;31.90;89.60;;;;;;6157163;23;20134;-88
2021/08/31 09:23:01;;;;;;;5.47;1.10;;;31.50;89.90;;;;;;6157338;23;20483;-88
2021/08/31 09:25:34;;;;;;;9.25;1.15;;;31.10;90.50;;;;;;6156998;23;20057;-87
2021/08/31 09:28:00;;;;;;;7.57;1.33;;;30.40;91.30;;;;;;6157093;23;20029;-88
2021/08/31 09:30:30;;;;;;;11.25;1.58;;;30.20;91.80;;;;;;6157102;23;20009;-89
2021/08/31 09:33:31;;;;;;;4.47;1.08;;;29.90;92.30;;;;;;6156855;23;20053;-88
2021/08/31 09:36:02;;;;;;;5.10;1.00;;;29.70;93.00;;;;;;6079548;23;20029;-89
2021/08/31 09:38:45;;;;;;;5.75;0.88;;;29.80;93.10;;;;;;6131139;23;20006;-87
2021/08/31 09:41:30;;;;;;;4.13;1.25;;;29.70;93.10;;;;;;6157298;23;20002;-90
2021/08/31 09:43:57;;;;;;;5.78;1.20;;;29.50;93.60;;;;;;6156935;23;20001;-89
2021/08/31 09:46:23;;;;;;;4.03;1.88;;;29.20;93.90;;;;;;6158662;23;20005;-88
2021/08/31 09:48:49;;;;;;;6.85;1.00;;;29.40;94.10;;;;;;6159032;23;20072;-89
2021/08/31 09:51:16;;;;;;;6.57;1.15;;;29.00;94.30;;;;;;6159478;23;20428;-90
2021/08/31 09:53:43;;;;;;;4.00;1.02;;;29.00;94.60;;;;;;6159420;23;20036;-91
2021/08/31 09:56:13;;;;;;;5.75;0.90;;;29.00;94.60;;;;;;6158224;23;20010;-87
2021/08/31 09:58:45;;;;;;;4.38;1.15;;;29.00;94.90;;;;;;6132774;23;20012;-89
2021/08/31 10:01:12;;;;;;;8.02;1.42;;;28.70;95.40;;;;;;6158762;23;20010;-86
2021/08/31 10:03:43;;;;;;;8.50;1.35;;;28.30;95.80;;;;;;6158935;23;20076;-90
2021/08/31 10:06:09;;;;;;;;;;;28.10;96.30;;;;;;6159452;23;20360;-84
2021/08/31 10:08:38;;;;;;;5.88;1.08;;;28.10;96.40;;;;;;6158216;23;19935;-86
2021/08/31 10:11:05;;;;;;;2.80;0.98;;;28.40;96.40;;;;;;6158384;23;19998;-90
2021/08/31 10:13:36;;;;;;;4.75;1.13;;;28.50;96.10;;;;;;6159547;23;20009;-89
2021/08/31 10:16:02;;;;;;;2.57;1.00;;;28.60;96.00;;;;;;6158487;23;20025;-85
2021/08/31 10:18:29;;;;;;;5.70;1.00;;;28.60;95.80;;;;;;6157951;23;20253;-86
2021/08/31 10:21:01;;;;;;;6.13;1.00;;;28.40;96.10;;;;;;6158542;23;20416;-84
2021/08/31 10:23:48;;;;;;;6.40;1.35;;;28.00;96.30;;;;;;6158139;23;20036;-84
2021/08/31 10:26:23;;;;;;;14.27;2.00;;;27.80;97.00;;;;;;6158396;23;20433;-83
2021/08/31 10:28:50;;;;;;;10.82;1.60;;;27.90;97.10;;;;;;6131547;23;20448;-84
2021/08/31 10:31:29;;;;;;;3.13;1.60;;;28.00;97.20;;;;;;6157453;23;20009;-82
2021/08/31 10:33:55;;;;;;;3.45;1.23;;;27.90;96.50;;;;;;6157759;23;19998;-81
2021/08/31 10:36:36;;;;;;;6.53;1.40;;;27.60;96.60;;;;;;6157438;23;20048;-85
2021/08/31 10:39:06;;;;;;;3.55;1.30;;;27.40;97.50;;;;;;6157460;23;20080;-85
2021/08/31 10:41:36;;;;;;;10.75;1.27;;;27.30;97.70;;;;;;6157600;23;20375;-85
2021/08/31 10:44:03;;;;;;;7.30;1.55;;;27.50;97.30;;;;;;6156016;23;20108;-85
2021/08/31 10:46:54;;;;;;;1.80;1.05;;;27.50;97.60;;;;;;6158118;23;20073;-86
2021/08/31 10:49:19;;;;;;;6.18;1.23;;;27.60;96.80;;;;;;6157736;23;20055;-85
2021/08/31 10:52:08;;;;;;;2.88;1.05;;;27.50;96.90;;;;;;6157469;23;20419;-87
2021/08/31 10:54:44;;;;;;;4.65;1.15;;;27.60;96.70;;;;;;6156162;23;20452;-86
2021/08/31 10:57:34;;;;;;;4.03;0.70;;;27.50;96.90;;;;;;6156095;23;20002;-87
2021/08/31 11:00:01;;;;;;;5.28;1.10;;;27.60;96.50;;;;;;6129677;23;20527;-87
2021/08/31 11:02:52;;;;;;;2.72;1.00;;;27.20;97.60;;;;;;6157300;23;20021;-88
2021/08/31 11:05:21;;;;;;;7.78;1.15;;;27.00;97.30;;;;;;6156452;23;20452;-87
2021/08/31 11:07:48;;;;;;;4.50;0.90;;;26.90;97.20;;;;;;6157852;23;20019;-86
2021/08/31 11:10:33;;;;;;;2.20;0.70;;;27.00;97.30;;;;;;6156792;23;20328;-86
2021/08/31 11:13:24;;;;;;;2.75;0.90;;;27.20;97.90;;;;;;6130849;23;19998;-87
2021/08/31 11:15:55;;;;;;;2.13;0.70;;;27.30;97.70;;;;;;6156865;23;19997;-88
2021/08/31 11:18:21;;;;;;;;;;;27.30;97.70;;;;;;6157264;23;20000;-86
2021/08/31 11:20:47;;;;;;;3.33;0.82;;;27.30;97.90;;;;;;6106085;23;19983;-86
2021/08/31 11:23:21;;;;;;;2.75;1.30;;;27.30;98.00;;;;;;6156238;23;19998;-87
2021/08/31 11:25:48;;;;;;;4.82;0.98;;;27.10;98.40;;;;;;6156146;23;20010;-86
2021/08/31 11:28:15;;;;;;;8.27;1.30;;;27.10;98.50;;;;;;6154714;23;20006;-85
2021/08/31 11:30:57;;;;;;;3.40;0.80;;;26.90;99.20;;;;;;6156590;23;20006;-86
2021/08/31 11:33:30;;;;;;;1.70;0.90;;;26.80;98.80;;;;;;6130059;23;20001;-85
2021/08/31 11:36:08;;;;;;;2.85;1.65;;;26.80;99.50;;;;;;6156447;23;20329;-86
2021/08/31 11:38:42;;;;;;;7.70;1.63;;;26.80;99.40;;;;;;6155999;23;20002;-85
2021/08/31 11:41:13;;;;;;;4.47;1.73;;;26.80;99.60;;;;;;6156553;23;20010;-86
2021/08/31 11:43:38;;;;;;;5.40;1.05;;;26.60;99.80;;;;;;6131256;23;20010;-84
2021/08/31 11:46:04;;;;;;;7.97;1.35;;;26.50;99.90;;;;;;6157357;23;20036;-84
2021/08/31 11:48:31;;;;;;;10.57;1.38;;;26.40;99.90;;;;;;6131710;23;20005;-84
2021/08/31 11:50:57;;;;;;;7.82;1.20;;;26.50;99.90;;;;;;6157049;23;20001;-88
2021/08/31 11:53:23;;;;;;;3.50;1.08;;;26.40;99.90;;;;;;6157442;23;19998;-83
2021/08/31 11:56:04;;;;;;;3.30;1.20;;;26.40;99.90;;;;;;6157078;23;20009;-83
2021/08/31 11:58:39;;;;;;;4.35;1.35;;;26.50;99.90;;;;;;6157072;23;20005;-84
2021/08/31 12:01:05;;;;;;;2.80;0.88;;;26.50;99.90;;;;;;6156761;23;20033;-81
2021/08/31 12:03:30;;;;;;;7.78;1.10;;;26.60;99.90;;;;;;6156972;23;19997;-85
2021/08/31 12:06:04;;;;;;;1.52;0.82;;;26.60;99.90;;;;;;6156682;23;20005;-88
2021/08/31 12:08:34;;;;;;;1.95;0.82;;;26.40;99.90;;;;;;6156604;23;20081;-89
2021/08/31 12:11:00;;;;;;;3.40;1.08;;;26.20;99.90;;;;;;6156071;23;19998;-86
2021/08/31 12:13:26;;;;;;;2.92;1.10;;;26.20;99.90;;;;;;6155845;23;20012;-86
2021/08/31 12:15:58;;;;;;;1.63;0.98;;;26.20;99.90;;;;;;6156349;23;20017;-87
2021/08/31 12:18:25;;;;;;;;;;;26.20;99.30;;;;;;6156588;23;20029;-85
2021/08/31 12:20:52;;;;;;;6.15;0.82;;;26.00;99.50;;;;;;6156058;23;19928;-84
2021/08/31 12:23:29;;;;;;;1.95;0.90;;;26.00;99.60;;;;;;6156011;23;19998;-88
2021/08/31 12:25:55;;;;;;;2.88;0.88;;;25.90;99.90;;;;;;6156345;23;20500;-88
2021/08/31 12:28:21;;;;;;;2.33;1.10;;;26.00;99.90;;;;;;6154959;23;20432;-82
2021/08/31 12:30:51;;;;;;;7.60;1.00;;;25.90;99.90;;;;;;6155792;23;20006;-86
2021/08/31 12:33:25;;;;;;;3.25;1.10;;;25.80;99.90;;;;;;6156227;23;20005;-85
2021/08/31 12:36:08;;;;;;;2.72;0.88;;;25.60;99.90;;;;;;6130231;23;20437;-86
2021/08/31 12:38:36;;;;;;;6.55;1.52;;;25.70;99.90;;;;;;6155482;23;20048;-85
2021/08/31 12:44:02;;;;;;;4.03;1.30;;;25.70;99.90;;;;;;6156158;23;20013;-89
2021/08/31 12:46:33;;;;;;;3.72;1.60;;;25.70;99.90;;;;;;6156643;23;20010;-86
2021/08/31 12:49:13;;;;;;;5.25;1.10;;;25.70;99.90;;;;;;6156455;23;20001;-85
2021/08/31 12:51:47;;;;;;;2.67;1.08;;;25.70;99.90;;;;;;6156669;23;20013;-86
2021/08/31 12:54:31;;;;;;;2.85;1.08;;;25.70;99.90;;;;;;6155671;23;20040;-88
2021/08/31 12:57:00;;;;;;;6.05;1.40;;;25.60;99.90;;;;;;6155801;23;20005;-87